Randolph, Indiana
Current Conditions -  °F | °C
As of 9:53 PM on Monday 26 Jan 2015 (Local Time) from KMIE Reporting Station
Overcast Overcast  
Wind Chill: 21°   Ceiling: 4900
Heat Index: 21°   Visibility: 10mi
Dew Point: 15°   Wind: 0mph
Humidity: 78%   Direction: NA
Pressure: 29.93"   Gusts: NA
Location:  40.2653°N, 85.0547°W
Report Text: KMIE 270253Z 00000KT 10SM OVC049 M06/M09 A2993 RMK AO2 SLP147 T10611094 51007
Loading
Personal Weather Stations






























Interactive Weather Map New forecast layout! Learn more

10-Day Weather Forecast

Advertisements
Track Severe Weather on mobile